Accueil
METAR-TAF:

METAR-TAF

Aéroports :

Hope, Colombie-Britannique, Canada

latitude: 49-22N, longitude: 121-29W, altitude: 39 m

Observation

Le bulletin a été fait il y a 1 heure et 3 minutes, à 21:00 UTC
Vent 7 kt de est/sud-est
Température 5°C
Humidité 75%
Pression 1031 hPa
Visibilité: 14.5 km
Ciel clair

METAR: CYHE 122100Z AUTO 11007KT 9SM CLR 05/01 A3045 RMK SLP315

Heure: 14:03 (22:03 UTC)


TAF: absent

Observations et prévisions météorologiques de plus de 4000 aéroports (messages METAR et TAF).

Les stations disponibles sont représentées par des disques jaunes et rouges sur la carte.

Passer la souris dessus pour voir le nom de la station.

Cliquer dessus pour voir les observations et prévisions météorologiques.

Pour changer de carte: cliquez sur les boutons verts avec une croix noire pour zoomer, sur le bouton vert avec un tiret pour effectuer un zoom arrière, ou sur les flèches vertes pour les cartes adjacentes.


METAR-TAF: